Waterville, New York
Current Conditions -  °F | °C
As of 8:53 AM on Saturday 01 Nov 2014 (Local Time) from KRME Reporting Station
Overcast Overcast  
Wind Chill: 39°   Ceiling: 5000
Heat Index: 39°   Visibility: 10mi
Dew Point: 31°   Wind: 3mph
Humidity: 73%   Direction: NA
Pressure: 30.02"   Gusts: NA
Location:  42.93°N, 75.38°W
Report Text: KRME 011253Z VRB03KT 10SM OVC050 04/M01 A3002 RMK AO2 SLP169 T00391006
Loading
Personal Weather Stations






























Interactive Weather Map
Tropical Storm Tracking
New forecast layout! Learn more

10-Day Weather Forecast

Advertisements
Track Severe Weather on mobile